createdAt,value
2023-03-29T00:02:07.862Z,55.97
2023-03-29T00:04:35.141Z,55.45
2023-03-29T00:07:04.422Z,56.08
2023-03-29T00:09:33.230Z,55.66
2023-03-29T00:12:01.422Z,56.41
2023-03-29T00:14:31.137Z,56.67
2023-03-29T00:16:58.615Z,56.99
2023-03-29T00:19:25.876Z,57.18
2023-03-29T00:21:53.077Z,56.55
2023-03-29T00:24:21.234Z,55.95
2023-03-29T00:26:48.534Z,55.82
2023-03-29T00:29:16.120Z,55.13
2023-03-29T00:31:45.992Z,54.84
2023-03-29T00:34:13.377Z,54.97
2023-03-29T00:36:40.635Z,55.13
2023-03-29T00:39:07.689Z,54.55
2023-03-29T00:41:34.880Z,53.79
2023-03-29T00:44:03.508Z,54.17
2023-03-29T00:46:31.637Z,53.72
2023-03-29T00:49:03.856Z,53.72
2023-03-29T00:51:34.276Z,54.05
2023-03-29T00:54:02.535Z,53.69
2023-03-29T00:56:31.646Z,53.39
2023-03-29T00:59:01.451Z,53.47
2023-03-29T01:01:34.142Z,53.38
2023-03-29T01:04:07.116Z,54.17
2023-03-29T01:06:35.409Z,54.53
2023-03-29T01:09:04.944Z,54.68
2023-03-29T01:11:36.368Z,54.50
2023-03-29T01:14:05.595Z,54.77
2023-03-29T01:16:35.306Z,54.21
2023-03-29T01:19:04.656Z,54.64
2023-03-29T01:21:34.275Z,54.60
2023-03-29T01:24:18.250Z,55.17
2023-03-29T01:26:55.515Z,54.90
2023-03-29T01:29:26.508Z,54.88
2023-03-29T01:34:30.306Z,54.80
2023-03-29T01:37:01.098Z,55.08
2023-03-29T01:39:28.057Z,55.27
2023-03-29T01:42:02.194Z,54.76
2023-03-29T01:44:32.198Z,55.43
2023-03-29T01:47:04.642Z,55.28
2023-03-29T01:49:34.676Z,55.49
2023-03-29T01:52:05.569Z,54.92
2023-03-29T01:54:35.378Z,55.42
2023-03-29T01:57:06.004Z,55.15
2023-03-29T01:59:37.278Z,54.83
2023-03-29T02:02:05.788Z,54.33
2023-03-29T02:04:34.731Z,53.29
2023-03-29T02:07:03.486Z,53.53
2023-03-29T02:09:32.169Z,53.84
2023-03-29T02:12:00.845Z,53.32
2023-03-29T02:14:27.957Z,52.29
2023-03-29T02:16:56.390Z,52.14
2023-03-29T02:19:25.213Z,53.12
2023-03-29T02:21:57.832Z,53.00
2023-03-29T02:24:26.412Z,53.44
2023-03-29T02:26:53.676Z,53.29
2023-03-29T02:29:20.704Z,53.53
2023-03-29T02:31:51.934Z,53.50
2023-03-29T02:34:22.493Z,52.76
2023-03-29T02:36:52.007Z,53.06
2023-03-29T02:39:20.378Z,53.91
2023-03-29T02:41:49.739Z,53.74
2023-03-29T02:44:19.494Z,53.72
2023-03-29T02:46:48.889Z,53.79
2023-03-29T02:49:16.146Z,54.41
2023-03-29T02:51:45.243Z,54.05
2023-03-29T02:54:14.012Z,55.00
2023-03-29T02:56:43.527Z,54.90
2023-03-29T02:59:12.174Z,55.08
2023-03-29T03:01:44.905Z,55.48
2023-03-29T03:04:13.366Z,55.83
2023-03-29T03:06:40.624Z,55.46
2023-03-29T03:09:11.426Z,55.36
2023-03-29T03:11:41.781Z,55.70
2023-03-29T03:14:08.906Z,56.05
2023-03-29T03:16:37.120Z,56.60
2023-03-29T03:19:04.482Z,56.36
2023-03-29T03:21:31.478Z,55.51
2023-03-29T03:24:00.121Z,56.02
2023-03-29T03:26:31.583Z,56.87
2023-03-29T03:28:58.614Z,56.63
2023-03-29T03:31:44.712Z,56.59
2023-03-29T03:34:31.878Z,56.56
2023-03-29T03:37:01.922Z,55.17
2023-03-29T03:39:32.740Z,54.66
2023-03-29T03:42:02.738Z,54.44
2023-03-29T03:44:29.691Z,54.68
2023-03-29T03:47:14.842Z,54.28
2023-03-29T03:49:42.850Z,54.32
2023-03-29T03:52:09.938Z,54.04
2023-03-29T03:54:36.899Z,54.37
2023-03-29T03:57:24.732Z,53.79
2023-03-29T03:59:53.178Z,54.01
2023-03-29T04:02:38.813Z,53.03
2023-03-29T04:05:06.479Z,53.26
2023-03-29T04:07:36.848Z,52.67
2023-03-29T04:10:22.736Z,52.48
2023-03-29T04:13:12.131Z,51.86
2023-03-29T04:16:01.422Z,51.22
2023-03-29T04:18:29.345Z,50.67
2023-03-29T04:20:59.010Z,50.64
2023-03-29T04:23:27.560Z,50.83
2023-03-29T04:25:55.774Z,49.73
2023-03-29T04:28:42.969Z,49.39
2023-03-29T04:31:15.369Z,50.17
2023-03-29T04:34:17.811Z,50.41
2023-03-29T04:36:46.230Z,50.25
2023-03-29T04:39:19.364Z,50.20
2023-03-29T04:41:51.294Z,50.30
2023-03-29T04:44:27.005Z,50.44
2023-03-29T04:46:56.869Z,50.20
2023-03-29T04:49:25.990Z,49.65
2023-03-29T04:51:54.479Z,50.29
2023-03-29T04:54:25.217Z,50.54
2023-03-29T04:57:05.764Z,50.45
2023-03-29T04:59:45.651Z,50.86
2023-03-29T05:02:38.923Z,49.64
2023-03-29T05:05:06.423Z,48.97
2023-03-29T05:07:33.537Z,49.77
2023-03-29T05:10:00.907Z,49.32
2023-03-29T05:12:28.129Z,48.82
2023-03-29T05:14:58.710Z,48.85
2023-03-29T05:17:27.575Z,48.52
2023-03-29T05:19:59.785Z,47.71
2023-03-29T05:22:27.092Z,47.95
2023-03-29T05:24:54.157Z,47.81
2023-03-29T05:27:23.032Z,47.89
2023-03-29T05:30:05.284Z,48.96
2023-03-29T05:32:49.293Z,49.49
2023-03-29T05:35:20.099Z,49.82
2023-03-29T05:37:47.404Z,49.42
2023-03-29T05:40:14.551Z,48.85
2023-03-29T05:43:02.694Z,49.05
2023-03-29T05:45:32.595Z,48.67
2023-03-29T05:47:59.836Z,48.59
2023-03-29T05:50:26.906Z,49.12
2023-03-29T05:52:56.049Z,48.25
2023-03-29T05:55:23.814Z,48.04
2023-03-29T05:57:50.811Z,48.03
2023-03-29T06:00:25.798Z,48.71
2023-03-29T06:03:17.566Z,48.13
2023-03-29T06:05:49.970Z,47.75
2023-03-29T06:08:17.283Z,47.51
2023-03-29T06:11:09.098Z,47.12
2023-03-29T06:13:54.863Z,47.28
2023-03-29T06:16:22.601Z,46.34
2023-03-29T06:18:50.983Z,46.72
2023-03-29T06:21:18.015Z,45.84
2023-03-29T06:23:45.385Z,45.27
2023-03-29T06:26:13.022Z,45.54
2023-03-29T06:28:40.608Z,44.89
2023-03-29T06:31:10.271Z,45.12
2023-03-29T06:33:40.775Z,45.94
2023-03-29T06:36:20.207Z,45.51
2023-03-29T06:38:47.375Z,45.43
2023-03-29T06:41:33.068Z,45.90
2023-03-29T06:44:22.915Z,45.02
2023-03-29T06:47:00.294Z,44.77
2023-03-29T06:49:28.397Z,44.78
2023-03-29T06:52:06.730Z,45.25
2023-03-29T06:54:33.880Z,44.81
2023-03-29T06:57:04.749Z,45.15
2023-03-29T06:59:35.064Z,45.15
2023-03-29T07:02:20.832Z,44.97
2023-03-29T07:04:54.562Z,45.40
2023-03-29T07:07:43.988Z,43.31
2023-03-29T07:10:26.373Z,43.38
2023-03-29T07:13:26.412Z,42.20
2023-03-29T07:15:55.459Z,42.70
2023-03-29T07:18:32.528Z,42.62
2023-03-29T07:20:59.913Z,42.77
2023-03-29T07:23:28.249Z,41.86
2023-03-29T07:25:55.759Z,40.91
2023-03-29T07:28:22.842Z,40.33
2023-03-29T07:30:51.590Z,40.09
2023-03-29T07:33:21.371Z,40.38
2023-03-29T07:35:51.637Z,40.76
2023-03-29T07:38:18.842Z,40.24
2023-03-29T07:40:51.808Z,39.72
2023-03-29T07:43:36.883Z,40.53
2023-03-29T07:46:05.120Z,40.28
2023-03-29T07:48:36.503Z,39.43
2023-03-29T07:51:07.251Z,38.36
2023-03-29T07:53:43.073Z,38.25
2023-03-29T07:56:34.561Z,38.42
2023-03-29T07:59:11.273Z,37.31
2023-03-29T08:01:41.055Z,37.21
2023-03-29T08:04:11.252Z,37.99
2023-03-29T08:07:01.580Z,35.83
2023-03-29T08:09:46.155Z,35.99
2023-03-29T08:12:14.501Z,36.46
2023-03-29T08:14:41.566Z,36.36
2023-03-29T08:17:19.435Z,36.54
2023-03-29T08:19:51.289Z,35.86
2023-03-29T08:22:22.323Z,35.58
2023-03-29T08:25:16.665Z,34.43
2023-03-29T08:27:49.585Z,33.68
2023-03-29T08:30:25.787Z,34.46
2023-03-29T08:32:55.270Z,35.07
2023-03-29T08:35:22.957Z,34.38
2023-03-29T08:38:02.469Z,32.23
2023-03-29T08:40:32.414Z,32.68
2023-03-29T08:43:30.378Z,31.54
2023-03-29T08:46:22.278Z,31.74
2023-03-29T08:48:51.952Z,29.88
2023-03-29T08:51:24.799Z,30.68
2023-03-29T08:53:54.283Z,30.97
2023-03-29T08:56:36.610Z,31.50
2023-03-29T08:59:27.007Z,30.17
2023-03-29T09:01:56.055Z,30.92
2023-03-29T09:04:25.415Z,31.16
2023-03-29T09:06:59.572Z,29.89
2023-03-29T09:09:34.251Z,30.56
2023-03-29T09:12:26.072Z,31.24
2023-03-29T09:15:04.769Z,30.65
2023-03-29T09:17:41.632Z,28.45
2023-03-29T09:20:21.825Z,30.09
2023-03-29T09:22:55.182Z,29.87
2023-03-29T09:25:25.338Z,26.76
2023-03-29T09:27:59.027Z,28.06
2023-03-29T09:30:41.587Z,26.65
2023-03-29T09:33:13.987Z,26.05
2023-03-29T09:36:05.300Z,26.57
2023-03-29T09:38:35.290Z,26.47
2023-03-29T09:41:18.140Z,27.89
2023-03-29T09:43:45.341Z,26.80
2023-03-29T09:46:21.780Z,27.07
2023-03-29T09:48:50.039Z,27.04
2023-03-29T09:51:18.303Z,27.32
2023-03-29T09:53:47.022Z,26.64
2023-03-29T09:56:29.300Z,27.06
2023-03-29T09:59:07.306Z,24.75
2023-03-29T10:01:38.899Z,22.66
2023-03-29T10:04:09.252Z,22.68
2023-03-29T10:06:43.405Z,21.50
2023-03-29T10:09:16.430Z,23.93
2023-03-29T10:11:47.816Z,23.59
2023-03-29T10:14:17.700Z,22.53
2023-03-29T10:16:46.613Z,24.06
2023-03-29T10:19:19.330Z,21.53
2023-03-29T10:21:49.026Z,22.10
2023-03-29T10:24:19.152Z,22.49
2023-03-29T10:26:47.133Z,21.87
2023-03-29T10:29:14.379Z,22.02
2023-03-29T10:31:43.176Z,20.56
2023-03-29T10:34:15.255Z,21.83
2023-03-29T10:36:44.961Z,20.91
2023-03-29T10:39:14.847Z,21.15
2023-03-29T10:41:42.788Z,21.02
2023-03-29T10:44:25.301Z,21.28
2023-03-29T10:46:52.329Z,20.20
2023-03-29T10:49:22.306Z,20.04
2023-03-29T10:51:50.798Z,20.22
2023-03-29T10:54:20.412Z,21.25
2023-03-29T10:56:50.816Z,20.77
2023-03-29T10:59:29.977Z,20.83
2023-03-29T11:02:29.789Z,21.11
2023-03-29T11:05:07.074Z,19.32
2023-03-29T11:07:35.700Z,20.04
2023-03-29T11:10:10.625Z,20.80
2023-03-29T11:12:42.025Z,20.30
2023-03-29T11:15:20.504Z,20.26
2023-03-29T11:17:56.122Z,20.10
2023-03-29T11:20:30.512Z,19.75
2023-03-29T11:23:06.238Z,19.44
2023-03-29T11:25:42.158Z,20.75
2023-03-29T11:28:14.213Z,19.18
2023-03-29T11:30:46.215Z,26.51
2023-03-29T11:33:22.282Z,27.88
2023-03-29T11:35:54.706Z,28.85
2023-03-29T11:38:25.786Z,21.09
2023-03-29T11:41:00.619Z,28.47
2023-03-29T11:43:32.357Z,22.17
2023-03-29T11:46:02.940Z,19.74
2023-03-29T11:48:32.496Z,22.75
2023-03-29T11:51:06.835Z,21.86
2023-03-29T11:53:39.503Z,18.50
2023-03-29T11:56:10.805Z,22.23
2023-03-29T11:58:40.248Z,22.01
2023-03-29T12:01:10.946Z,17.67
2023-03-29T12:03:43.124Z,17.86
2023-03-29T12:06:16.945Z,18.66
2023-03-29T12:08:46.477Z,19.33
2023-03-29T12:11:19.873Z,19.51
2023-03-29T12:13:52.576Z,18.77
2023-03-29T12:16:23.465Z,19.86
2023-03-29T12:18:54.584Z,20.31
2023-03-29T12:21:24.206Z,19.37
2023-03-29T12:23:52.755Z,19.24
2023-03-29T12:26:30.860Z,19.27
2023-03-29T12:29:30.080Z,19.88
2023-03-29T12:32:08.878Z,19.97
2023-03-29T12:34:54.792Z,19.60
2023-03-29T12:37:45.789Z,18.75
2023-03-29T12:40:40.015Z,20.15
2023-03-29T12:43:27.589Z,20.02
2023-03-29T12:46:16.760Z,20.71
2023-03-29T12:48:45.812Z,18.26
2023-03-29T12:51:14.405Z,18.77
2023-03-29T12:53:45.262Z,19.16
2023-03-29T12:56:14.915Z,20.06
2023-03-29T12:58:50.550Z,20.17
2023-03-29T13:01:29.896Z,21.47
2023-03-29T13:04:13.868Z,20.08
2023-03-29T13:07:12.373Z,19.13
2023-03-29T13:09:50.717Z,19.33
2023-03-29T13:12:27.223Z,20.17
2023-03-29T13:14:56.025Z,19.94
2023-03-29T13:17:25.703Z,19.34
2023-03-29T13:20:04.137Z,18.59
2023-03-29T13:22:36.649Z,18.41
2023-03-29T13:25:20.583Z,18.73
2023-03-29T13:27:52.768Z,19.87
2023-03-29T13:30:25.790Z,19.23
2023-03-29T13:32:59.676Z,19.06
2023-03-29T13:35:33.633Z,19.70
2023-03-29T13:38:07.894Z,19.55
2023-03-29T13:40:46.999Z,19.11
2023-03-29T13:43:23.511Z,18.28
2023-03-29T13:46:17.780Z,18.54
2023-03-29T13:49:01.151Z,18.27
2023-03-29T13:51:38.516Z,18.50
2023-03-29T13:54:13.604Z,18.57
2023-03-29T13:56:51.577Z,18.89
2023-03-29T13:59:20.995Z,18.15
2023-03-29T14:01:51.723Z,17.72
2023-03-29T14:04:24.314Z,18.03
2023-03-29T14:06:53.501Z,18.18
2023-03-29T14:09:22.305Z,17.99
2023-03-29T14:11:51.581Z,17.81
2023-03-29T14:14:22.277Z,17.82
2023-03-29T14:16:49.463Z,18.68
2023-03-29T14:19:19.353Z,18.88
2023-03-29T14:21:46.581Z,19.11
2023-03-29T14:24:18.828Z,18.66
2023-03-29T14:26:47.445Z,18.40
2023-03-29T14:29:16.282Z,16.57
2023-03-29T14:31:43.373Z,17.21
2023-03-29T14:34:13.723Z,18.66
2023-03-29T14:36:41.720Z,17.13
2023-03-29T14:39:13.153Z,16.93
2023-03-29T14:41:43.146Z,17.61
2023-03-29T14:44:11.398Z,19.15
2023-03-29T14:46:40.276Z,19.16
2023-03-29T14:49:07.732Z,18.96
2023-03-29T14:51:36.096Z,19.64
2023-03-29T14:54:03.806Z,19.84
2023-03-29T14:56:32.652Z,18.79
2023-03-29T14:59:03.608Z,18.78
2023-03-29T15:01:31.380Z,20.50
2023-03-29T15:04:05.683Z,20.80
2023-03-29T15:06:33.178Z,21.06
2023-03-29T15:09:06.562Z,21.13
2023-03-29T15:11:35.160Z,21.13
2023-03-29T15:14:04.083Z,21.89
2023-03-29T15:16:31.361Z,21.38
2023-03-29T15:18:58.882Z,21.52
2023-03-29T15:21:33.869Z,20.99
2023-03-29T15:24:01.152Z,21.71
2023-03-29T15:26:31.372Z,21.61
2023-03-29T15:29:03.196Z,22.71
2023-03-29T15:31:34.846Z,23.00
2023-03-29T15:34:06.234Z,23.71
2023-03-29T15:36:42.294Z,24.23
2023-03-29T15:39:12.143Z,25.23
2023-03-29T15:41:39.464Z,24.77
2023-03-29T15:44:07.238Z,25.37
2023-03-29T15:46:34.267Z,25.31
2023-03-29T15:49:01.614Z,25.22
2023-03-29T15:51:28.572Z,25.64
2023-03-29T15:53:56.964Z,25.79
2023-03-29T15:56:23.960Z,26.28
2023-03-29T15:58:51.018Z,26.72
2023-03-29T16:01:33.555Z,26.53
2023-03-29T16:04:00.811Z,26.42
2023-03-29T16:06:27.943Z,26.85
2023-03-29T16:08:57.436Z,26.65
2023-03-29T16:11:24.619Z,26.83
2023-03-29T16:13:51.638Z,26.83
2023-03-29T16:16:18.691Z,27.01
2023-03-29T16:18:45.841Z,27.79
2023-03-29T16:21:15.751Z,29.04
2023-03-29T16:23:43.029Z,28.32
2023-03-29T16:26:13.113Z,28.98
2023-03-29T16:28:43.064Z,29.45
2023-03-29T16:31:11.265Z,28.93
2023-03-29T16:33:38.278Z,29.86
2023-03-29T16:36:06.767Z,29.60
2023-03-29T16:38:34.190Z,29.62
2023-03-29T16:41:01.764Z,30.01
2023-03-29T16:43:30.620Z,29.95
2023-03-29T16:45:57.456Z,30.36
2023-03-29T16:48:24.498Z,30.28
2023-03-29T16:50:51.814Z,30.57
2023-03-29T16:53:19.772Z,30.99
2023-03-29T16:55:46.847Z,31.25
2023-03-29T16:58:15.543Z,30.97
2023-03-29T17:00:47.976Z,31.31
2023-03-29T17:03:15.893Z,30.61
2023-03-29T17:05:47.192Z,30.38
2023-03-29T17:08:14.267Z,30.56
2023-03-29T17:10:41.898Z,30.28
2023-03-29T17:13:08.875Z,30.58
2023-03-29T17:15:39.411Z,30.28
2023-03-29T17:18:08.282Z,29.84
2023-03-29T17:20:38.764Z,29.84
2023-03-29T17:23:05.799Z,29.47
2023-03-29T17:25:32.935Z,29.94
2023-03-29T17:27:59.915Z,29.74
2023-03-29T17:30:26.906Z,29.75
2023-03-29T17:32:53.956Z,29.90
2023-03-29T17:35:22.405Z,30.47
2023-03-29T17:37:49.626Z,30.67
2023-03-29T17:40:18.046Z,30.63
2023-03-29T17:42:48.812Z,30.96
2023-03-29T17:45:16.521Z,30.98
2023-03-29T17:47:43.648Z,31.65
2023-03-29T17:50:11.991Z,31.93
2023-03-29T17:52:40.484Z,32.24
2023-03-29T17:55:11.130Z,32.10
2023-03-29T17:57:38.997Z,32.09
2023-03-29T18:00:09.355Z,32.34
2023-03-29T18:02:37.100Z,32.19
2023-03-29T18:05:04.814Z,32.47
2023-03-29T18:07:31.988Z,32.49
2023-03-29T18:10:00.651Z,32.51
2023-03-29T18:12:28.530Z,32.47
2023-03-29T18:14:57.008Z,32.82
2023-03-29T18:17:24.416Z,33.26
2023-03-29T18:19:51.685Z,33.58
2023-03-29T18:22:19.724Z,33.28
2023-03-29T18:24:46.706Z,33.64
2023-03-29T18:27:16.024Z,33.32
2023-03-29T18:29:44.122Z,33.64
2023-03-29T18:32:11.411Z,33.70
2023-03-29T18:34:39.393Z,33.90
2023-03-29T18:37:07.485Z,33.68
2023-03-29T18:39:35.839Z,33.78
2023-03-29T18:42:03.054Z,33.92
2023-03-29T18:44:31.424Z,33.99
2023-03-29T18:46:58.445Z,34.40
2023-03-29T18:49:25.940Z,34.31
2023-03-29T18:51:54.442Z,34.63
2023-03-29T18:54:21.450Z,34.68
2023-03-29T18:56:48.466Z,34.50
2023-03-29T18:59:17.173Z,34.84
2023-03-29T19:01:45.861Z,34.82
2023-03-29T19:04:13.544Z,35.09
2023-03-29T19:06:41.501Z,34.92
2023-03-29T19:09:08.498Z,35.01
2023-03-29T19:11:36.192Z,35.28
2023-03-29T19:14:03.696Z,35.34
2023-03-29T19:16:30.800Z,35.45
2023-03-29T19:18:59.212Z,35.17
2023-03-29T19:21:27.867Z,35.13
2023-03-29T19:23:54.770Z,35.36
2023-03-29T19:26:21.847Z,35.29
2023-03-29T19:28:48.893Z,35.11
2023-03-29T19:31:15.983Z,35.32
2023-03-29T19:33:42.960Z,35.16
2023-03-29T19:36:11.327Z,35.52
2023-03-29T19:38:38.278Z,35.91
2023-03-29T19:41:07.643Z,35.61
2023-03-29T19:43:35.409Z,35.67
2023-03-29T19:46:08.040Z,36.15
2023-03-29T19:48:35.148Z,36.44
2023-03-29T19:51:03.717Z,36.09
2023-03-29T19:53:32.933Z,35.97
2023-03-29T19:56:00.098Z,36.22
2023-03-29T19:58:27.180Z,36.29
2023-03-29T20:00:58.079Z,36.01
2023-03-29T20:03:28.332Z,36.06
2023-03-29T20:05:56.404Z,35.87
2023-03-29T20:08:24.819Z,36.00
2023-03-29T20:10:58.585Z,36.23
2023-03-29T20:13:37.465Z,36.34
2023-03-29T20:16:06.885Z,35.76
2023-03-29T20:18:34.259Z,35.67
2023-03-29T20:21:02.144Z,35.82
2023-03-29T20:23:29.976Z,35.46
2023-03-29T20:25:58.488Z,35.54
2023-03-29T20:28:25.494Z,35.42
2023-03-29T20:30:52.974Z,35.59
2023-03-29T20:33:20.810Z,35.39
2023-03-29T20:35:48.760Z,35.99
2023-03-29T20:38:16.196Z,35.77
2023-03-29T20:40:43.443Z,36.02
2023-03-29T20:43:13.584Z,36.15
2023-03-29T20:45:52.773Z,36.03
2023-03-29T20:48:23.203Z,35.84
2023-03-29T20:50:50.930Z,36.38
2023-03-29T20:53:18.481Z,36.46
2023-03-29T20:55:45.651Z,36.19
2023-03-29T20:58:15.876Z,35.85
2023-03-29T21:00:43.701Z,35.87
2023-03-29T21:03:11.193Z,35.83
2023-03-29T21:05:39.065Z,35.65
2023-03-29T21:08:06.290Z,35.48
2023-03-29T21:10:33.394Z,35.59
2023-03-29T21:13:02.826Z,36.26
2023-03-29T21:15:31.944Z,35.61
2023-03-29T21:17:59.235Z,38.47
2023-03-29T21:20:27.714Z,39.18
2023-03-29T21:22:54.754Z,36.05
2023-03-29T21:25:21.752Z,35.40
2023-03-29T21:27:49.224Z,35.44
2023-03-29T21:30:16.618Z,35.43
2023-03-29T21:32:45.042Z,35.80
2023-03-29T21:35:12.578Z,35.81
2023-03-29T21:37:39.686Z,35.60
2023-03-29T21:40:09.267Z,36.20
2023-03-29T21:42:36.715Z,36.21
2023-03-29T21:45:04.632Z,35.54
2023-03-29T21:47:31.733Z,35.96
2023-03-29T21:50:00.124Z,36.64
2023-03-29T21:52:27.454Z,36.52
2023-03-29T21:54:54.404Z,36.29
2023-03-29T21:57:21.481Z,36.66
2023-03-29T21:59:48.510Z,36.12
2023-03-29T22:02:15.535Z,36.37
2023-03-29T22:04:42.657Z,35.63
2023-03-29T22:07:11.061Z,35.65
2023-03-29T22:09:41.725Z,35.83
2023-03-29T22:12:09.955Z,36.39
2023-03-29T22:14:37.328Z,36.73
2023-03-29T22:17:08.012Z,37.04
2023-03-29T22:19:39.251Z,37.14
2023-03-29T22:22:07.313Z,37.12
2023-03-29T22:24:35.708Z,37.28
2023-03-29T22:27:03.893Z,37.02
2023-03-29T22:29:31.075Z,37.14
2023-03-29T22:31:58.077Z,37.98
2023-03-29T22:34:25.138Z,37.42
2023-03-29T22:36:52.102Z,38.28
2023-03-29T22:39:19.104Z,38.79
2023-03-29T22:41:47.518Z,38.88
2023-03-29T22:44:14.568Z,38.82
2023-03-29T22:46:41.553Z,38.96
2023-03-29T22:49:08.551Z,38.87
2023-03-29T22:51:35.922Z,38.77
2023-03-29T22:54:03.046Z,39.62
2023-03-29T22:56:30.000Z,39.41
2023-03-29T22:58:58.407Z,39.13
2023-03-29T23:01:25.683Z,39.98
2023-03-29T23:03:52.785Z,40.03
2023-03-29T23:06:19.927Z,40.62
2023-03-29T23:08:47.119Z,41.93
2023-03-29T23:11:14.251Z,42.57
2023-03-29T23:13:41.265Z,42.67
2023-03-29T23:16:10.085Z,43.96
2023-03-29T23:18:37.726Z,43.64
2023-03-29T23:21:06.072Z,43.92
2023-03-29T23:23:33.800Z,44.08
2023-03-29T23:26:01.700Z,44.70
2023-03-29T23:28:30.739Z,44.63
2023-03-29T23:31:00.561Z,44.45
2023-03-29T23:33:36.361Z,44.25
2023-03-29T23:36:05.809Z,44.40
2023-03-29T23:38:34.320Z,44.20
2023-03-29T23:41:03.575Z,43.74
2023-03-29T23:43:32.921Z,44.59
2023-03-29T23:46:01.692Z,44.73
2023-03-29T23:48:30.298Z,44.52
2023-03-29T23:50:57.427Z,45.10
2023-03-29T23:53:25.471Z,44.57
2023-03-29T23:55:56.168Z,44.62
2023-03-29T23:58:23.145Z,44.77
